createdAt,value
2023-01-28T00:01:17.835Z,13.60
2023-01-28T00:03:44.521Z,14.47
2023-01-28T00:06:15.256Z,14.47
2023-01-28T00:08:42.152Z,14.87
2023-01-28T00:11:11.838Z,15.13
2023-01-28T00:13:39.027Z,14.37
2023-01-28T00:16:08.836Z,14.50
2023-01-28T00:18:36.135Z,13.60
2023-01-28T00:21:04.475Z,14.37
2023-01-28T00:23:33.766Z,14.23
2023-01-28T00:26:02.115Z,13.93
2023-01-28T00:28:29.104Z,13.17
2023-01-28T00:30:56.081Z,14.70
2023-01-28T00:33:23.282Z,13.83
2023-01-28T00:36:01.102Z,13.97
2023-01-28T00:38:28.751Z,13.17
2023-01-28T00:40:55.687Z,13.87
2023-01-28T00:43:23.373Z,13.07
2023-01-28T00:45:50.457Z,13.63
2023-01-28T00:48:17.195Z,13.30
2023-01-28T00:50:45.600Z,13.10
2023-01-28T00:53:12.243Z,13.40
2023-01-28T00:55:38.997Z,13.70
2023-01-28T00:58:05.661Z,13.17
2023-01-28T01:00:32.250Z,13.00
2023-01-28T01:02:59.538Z,12.40
2023-01-28T01:05:26.251Z,13.40
2023-01-28T01:07:52.858Z,13.77
2023-01-28T01:10:20.457Z,14.27
2023-01-28T01:12:48.571Z,13.23
2023-01-28T01:15:16.237Z,13.70
2023-01-28T01:17:45.926Z,13.47
2023-01-28T01:20:15.799Z,14.23
2023-01-28T01:22:42.456Z,14.13
2023-01-28T01:25:09.426Z,14.53
2023-01-28T01:27:36.274Z,13.27
2023-01-28T01:30:03.359Z,13.27
2023-01-28T01:32:31.574Z,13.80
2023-01-28T01:34:58.583Z,13.00
2023-01-28T01:37:25.873Z,13.13
2023-01-28T01:39:52.518Z,14.07
2023-01-28T01:42:19.349Z,13.33
2023-01-28T01:44:56.097Z,14.57
2023-01-28T01:47:27.933Z,15.20
2023-01-28T01:49:55.338Z,13.90
2023-01-28T01:52:26.785Z,13.60
2023-01-28T01:54:58.306Z,14.77
2023-01-28T01:57:28.483Z,15.00
2023-01-28T01:59:55.867Z,14.47
2023-01-28T02:02:23.422Z,15.60
2023-01-28T02:04:50.212Z,15.80
2023-01-28T02:07:17.511Z,14.30
2023-01-28T02:09:44.184Z,14.40
2023-01-28T02:12:17.999Z,14.40
2023-01-28T02:14:48.743Z,15.17
2023-01-28T02:17:15.728Z,15.47
2023-01-28T02:19:51.716Z,14.63
2023-01-28T02:22:26.554Z,15.47
2023-01-28T02:25:11.296Z,14.50
2023-01-28T02:27:49.933Z,14.57
2023-01-28T02:30:23.056Z,15.13
2023-01-28T02:33:00.758Z,14.87
2023-01-28T02:35:41.588Z,15.37
2023-01-28T02:38:11.655Z,14.70
2023-01-28T02:40:58.935Z,14.70
2023-01-28T02:43:43.182Z,15.13
2023-01-28T02:46:43.713Z,14.47
2023-01-28T02:49:14.782Z,14.37
2023-01-28T02:51:50.454Z,15.27
2023-01-28T02:54:35.860Z,15.33
2023-01-28T02:57:39.925Z,15.10
2023-01-28T03:00:23.490Z,13.37
2023-01-28T03:02:59.666Z,16.10
2023-01-28T03:05:31.876Z,15.23
2023-01-28T03:07:59.171Z,15.23
2023-01-28T03:10:26.766Z,15.40
2023-01-28T03:13:14.473Z,14.33
2023-01-28T03:16:05.532Z,15.70
2023-01-28T03:19:02.680Z,15.73
2023-01-28T03:21:58.094Z,15.80
2023-01-28T03:24:48.137Z,15.27
2023-01-28T03:27:47.439Z,14.87
2023-01-28T03:30:38.257Z,16.70
2023-01-28T03:33:29.344Z,16.27
2023-01-28T03:36:14.664Z,17.50
2023-01-28T03:38:42.849Z,17.03
2023-01-28T03:41:12.595Z,16.10
2023-01-28T03:43:41.314Z,15.63
2023-01-28T03:46:08.012Z,15.83
2023-01-28T03:48:34.613Z,16.27
2023-01-28T03:51:06.386Z,16.30
2023-01-28T03:53:33.375Z,13.67
2023-01-28T03:56:00.006Z,16.33
2023-01-28T03:58:40.257Z,16.63
2023-01-28T04:01:06.946Z,15.10
2023-01-28T04:03:33.494Z,16.80
2023-01-28T04:06:06.979Z,15.97
2023-01-28T04:09:05.973Z,16.33
2023-01-28T04:11:52.889Z,16.13
2023-01-28T04:14:27.447Z,15.73
2023-01-28T04:16:59.050Z,16.93
2023-01-28T04:19:26.570Z,17.17
2023-01-28T04:21:54.987Z,16.57
2023-01-28T04:24:22.403Z,16.53
2023-01-28T04:26:49.198Z,16.50
2023-01-28T04:29:16.069Z,17.13
2023-01-28T04:31:42.733Z,16.43
2023-01-28T04:34:33.962Z,16.33
2023-01-28T04:37:21.342Z,15.83
2023-01-28T04:40:13.347Z,16.50
2023-01-28T04:42:42.322Z,16.43
2023-01-28T04:45:18.675Z,16.37
2023-01-28T04:47:59.177Z,18.00
2023-01-28T04:50:46.703Z,16.47
2023-01-28T04:53:39.580Z,16.67
2023-01-28T04:56:08.041Z,17.60
2023-01-28T04:58:36.106Z,17.30
2023-01-28T05:01:06.174Z,17.03
2023-01-28T05:03:35.322Z,17.40
2023-01-28T05:06:04.506Z,16.37
2023-01-28T05:08:38.292Z,18.03
2023-01-28T05:11:04.967Z,17.20
2023-01-28T05:13:31.574Z,16.67
2023-01-28T05:15:58.414Z,16.43
2023-01-28T05:18:25.088Z,16.07
2023-01-28T05:21:03.615Z,16.23
2023-01-28T05:23:31.889Z,16.87
2023-01-28T05:25:59.231Z,16.43
2023-01-28T05:28:26.369Z,16.67
2023-01-28T05:30:53.317Z,16.43
2023-01-28T05:33:20.096Z,15.43
2023-01-28T05:35:46.692Z,16.87
2023-01-28T05:38:15.306Z,17.43
2023-01-28T05:40:42.281Z,16.40
2023-01-28T05:43:09.032Z,13.73
2023-01-28T05:45:43.557Z,15.60
2023-01-28T05:48:19.141Z,16.53
2023-01-28T05:51:05.233Z,17.17
2023-01-28T05:53:34.740Z,16.27
2023-01-28T05:56:01.395Z,15.57
2023-01-28T05:58:32.160Z,16.47
2023-01-28T06:01:02.202Z,16.57
2023-01-28T06:03:36.978Z,15.47
2023-01-28T06:06:03.897Z,17.23
2023-01-28T06:08:31.282Z,17.57
2023-01-28T06:10:58.658Z,15.27
2023-01-28T06:13:25.291Z,15.80
2023-01-28T06:16:15.093Z,15.33
2023-01-28T06:19:00.988Z,14.50
2023-01-28T06:21:30.049Z,14.60
2023-01-28T06:23:57.880Z,15.60
2023-01-28T06:26:24.571Z,14.97
2023-01-28T06:28:51.458Z,14.47
2023-01-28T06:31:18.435Z,15.33
2023-01-28T06:33:45.116Z,15.20
2023-01-28T06:36:11.724Z,14.37
2023-01-28T06:38:38.497Z,14.37
2023-01-28T06:41:05.187Z,13.97
2023-01-28T06:43:31.775Z,15.40
2023-01-28T06:45:58.729Z,13.37
2023-01-28T06:48:26.137Z,14.77
2023-01-28T06:50:53.009Z,14.40
2023-01-28T06:53:20.429Z,13.47
2023-01-28T06:55:47.068Z,14.17
2023-01-28T06:58:13.816Z,14.03
2023-01-28T07:00:40.547Z,14.63
2023-01-28T07:03:07.483Z,14.87
2023-01-28T07:05:34.313Z,13.73
2023-01-28T07:08:02.292Z,15.07
2023-01-28T07:10:29.669Z,14.33
2023-01-28T07:12:56.403Z,13.73
2023-01-28T07:15:23.128Z,13.43
2023-01-28T07:17:49.736Z,13.10
2023-01-28T07:20:17.344Z,13.50
2023-01-28T07:22:45.451Z,13.43
2023-01-28T07:25:13.565Z,11.93
2023-01-28T07:27:46.116Z,14.10
2023-01-28T07:30:15.572Z,14.50
2023-01-28T07:32:42.636Z,12.57
2023-01-28T07:35:09.641Z,14.20
2023-01-28T07:37:36.280Z,13.10
2023-01-28T07:40:03.432Z,14.37
2023-01-28T07:42:30.504Z,14.77
2023-01-28T07:45:00.699Z,14.67
2023-01-28T07:47:27.381Z,13.90
2023-01-28T07:49:54.070Z,15.33
2023-01-28T07:52:20.751Z,15.13
2023-01-28T07:54:47.369Z,17.83
2023-01-28T07:57:14.196Z,15.10
2023-01-28T07:59:40.897Z,15.60
2023-01-28T08:02:11.421Z,15.57
2023-01-28T08:04:40.452Z,14.10
2023-01-28T08:07:08.263Z,12.43
2023-01-28T08:09:35.278Z,14.47
2023-01-28T08:12:02.713Z,14.70
2023-01-28T08:14:29.603Z,14.53
2023-01-28T08:16:56.507Z,14.83
2023-01-28T08:19:23.167Z,14.40
2023-01-28T08:21:50.536Z,15.30
2023-01-28T08:24:17.778Z,14.73
2023-01-28T08:26:45.116Z,14.00
2023-01-28T08:29:12.447Z,14.53
2023-01-28T08:31:39.530Z,14.70
2023-01-28T08:34:06.417Z,14.83
2023-01-28T08:36:33.227Z,14.73
2023-01-28T08:39:00.130Z,15.00
2023-01-28T08:41:27.009Z,14.53
2023-01-28T08:43:53.647Z,15.00
2023-01-28T08:46:20.337Z,15.03
2023-01-28T08:48:50.397Z,14.53
2023-01-28T08:51:24.319Z,21.57
2023-01-28T09:02:31.970Z,15.23
2023-01-28T09:05:00.526Z,15.17
2023-01-28T09:07:27.997Z,16.43
2023-01-28T09:09:55.013Z,16.17
2023-01-28T09:12:22.112Z,16.23
2023-01-28T09:14:48.789Z,15.23
2023-01-28T09:17:15.456Z,15.63
2023-01-28T09:19:42.083Z,15.10
2023-01-28T09:22:08.704Z,13.60
2023-01-28T09:24:37.272Z,14.03
2023-01-28T09:27:05.189Z,14.10
2023-01-28T09:29:34.061Z,13.57
2023-01-28T09:32:01.743Z,12.97
2023-01-28T09:34:29.724Z,12.77
2023-01-28T09:36:57.114Z,12.53
2023-01-28T09:39:25.692Z,14.33
2023-01-28T09:41:59.077Z,13.80
